sensor_id;sensor_type;location;lat;lon;timestamp;P1;durP1;ratioP1;P2;durP2;ratioP2
15094;SDS011;7648;52.264;9.632;2023-03-11T00:02:23;4.00;;;3.70;;
15094;SDS011;7648;52.264;9.632;2023-03-11T00:06:25;5.60;;;4.73;;
15094;SDS011;7648;52.264;9.632;2023-03-11T00:10:29;6.07;;;4.53;;
15094;SDS011;7648;52.264;9.632;2023-03-11T00:14:32;4.23;;;3.90;;
15094;SDS011;7648;52.264;9.632;2023-03-11T00:18:34;4.57;;;4.17;;
15094;SDS011;7648;52.264;9.632;2023-03-11T00:22:36;6.43;;;3.70;;
15094;SDS011;7648;52.264;9.632;2023-03-11T00:26:39;4.00;;;3.50;;
15094;SDS011;7648;52.264;9.632;2023-03-11T00:30:42;3.67;;;3.03;;
15094;SDS011;7648;52.264;9.632;2023-03-11T00:34:45;3.97;;;3.20;;
15094;SDS011;7648;52.264;9.632;2023-03-11T00:38:46;3.43;;;3.00;;
15094;SDS011;7648;52.264;9.632;2023-03-11T00:42:50;3.20;;;2.77;;
15094;SDS011;7648;52.264;9.632;2023-03-11T00:46:52;3.43;;;3.17;;
15094;SDS011;7648;52.264;9.632;2023-03-11T00:50:54;2.57;;;2.33;;
15094;SDS011;7648;52.264;9.632;2023-03-11T00:54:57;2.70;;;2.40;;
15094;SDS011;7648;52.264;9.632;2023-03-11T00:59:01;2.60;;;2.33;;
15094;SDS011;7648;52.264;9.632;2023-03-11T01:03:03;2.33;;;2.23;;
15094;SDS011;7648;52.264;9.632;2023-03-11T01:07:05;1.97;;;1.87;;
15094;SDS011;7648;52.264;9.632;2023-03-11T01:11:07;1.97;;;1.87;;
15094;SDS011;7648;52.264;9.632;2023-03-11T01:15:14;2.20;;;2.10;;
15094;SDS011;7648;52.264;9.632;2023-03-11T01:19:19;2.73;;;2.23;;
15094;SDS011;7648;52.264;9.632;2023-03-11T01:23:21;1.50;;;1.40;;
15094;SDS011;7648;52.264;9.632;2023-03-11T01:27:23;2.43;;;2.30;;
15094;SDS011;7648;52.264;9.632;2023-03-11T01:31:26;3.57;;;2.10;;
15094;SDS011;7648;52.264;9.632;2023-03-11T01:35:28;2.20;;;2.10;;
15094;SDS011;7648;52.264;9.632;2023-03-11T01:39:31;2.37;;;2.17;;
15094;SDS011;7648;52.264;9.632;2023-03-11T01:43:38;1.80;;;1.70;;
15094;SDS011;7648;52.264;9.632;2023-03-11T01:47:54;2.97;;;1.70;;
15094;SDS011;7648;52.264;9.632;2023-03-11T01:51:58;3.13;;;1.80;;
15094;SDS011;7648;52.264;9.632;2023-03-11T01:56:07;1.90;;;1.80;;
15094;SDS011;7648;52.264;9.632;2023-03-11T02:00:10;2.07;;;1.97;;
15094;SDS011;7648;52.264;9.632;2023-03-11T02:04:17;2.10;;;2.00;;
15094;SDS011;7648;52.264;9.632;2023-03-11T02:08:21;1.97;;;1.87;;
15094;SDS011;7648;52.264;9.632;2023-03-11T02:12:24;1.70;;;1.60;;
15094;SDS011;7648;52.264;9.632;2023-03-11T02:16:29;2.10;;;1.87;;
15094;SDS011;7648;52.264;9.632;2023-03-11T02:20:34;2.63;;;2.00;;
15094;SDS011;7648;52.264;9.632;2023-03-11T02:24:45;1.70;;;1.60;;
15094;SDS011;7648;52.264;9.632;2023-03-11T02:28:56;1.80;;;1.70;;
15094;SDS011;7648;52.264;9.632;2023-03-11T02:33:00;2.70;;;1.70;;
15094;SDS011;7648;52.264;9.632;2023-03-11T02:37:03;3.00;;;2.30;;
15094;SDS011;7648;52.264;9.632;2023-03-11T02:41:07;2.20;;;1.90;;
15094;SDS011;7648;52.264;9.632;2023-03-11T02:45:11;2.03;;;1.80;;
15094;SDS011;7648;52.264;9.632;2023-03-11T02:49:17;2.40;;;1.80;;
15094;SDS011;7648;52.264;9.632;2023-03-11T02:53:20;1.70;;;1.60;;
15094;SDS011;7648;52.264;9.632;2023-03-11T02:57:23;1.87;;;1.77;;
15094;SDS011;7648;52.264;9.632;2023-03-11T03:01:26;1.53;;;1.43;;
15094;SDS011;7648;52.264;9.632;2023-03-11T03:05:28;1.40;;;1.30;;
15094;SDS011;7648;52.264;9.632;2023-03-11T03:09:32;1.80;;;1.70;;
15094;SDS011;7648;52.264;9.632;2023-03-11T03:13:34;1.97;;;1.87;;
15094;SDS011;7648;52.264;9.632;2023-03-11T03:17:38;1.77;;;1.67;;
15094;SDS011;7648;52.264;9.632;2023-03-11T03:21:41;2.30;;;1.90;;
15094;SDS011;7648;52.264;9.632;2023-03-11T03:25:43;2.80;;;2.10;;
15094;SDS011;7648;52.264;9.632;2023-03-11T03:29:46;1.73;;;1.67;;
15094;SDS011;7648;52.264;9.632;2023-03-11T03:33:51;2.67;;;1.70;;
15094;SDS011;7648;52.264;9.632;2023-03-11T03:42:34;2.33;;;1.70;;
15094;SDS011;7648;52.264;9.632;2023-03-11T03:46:36;2.03;;;1.53;;
15094;SDS011;7648;52.264;9.632;2023-03-11T03:50:41;1.40;;;1.30;;
15094;SDS011;7648;52.264;9.632;2023-03-11T03:54:47;1.57;;;1.30;;
15094;SDS011;7648;52.264;9.632;2023-03-11T03:58:49;1.90;;;1.40;;
15094;SDS011;7648;52.264;9.632;2023-03-11T04:02:51;1.40;;;1.30;;
15094;SDS011;7648;52.264;9.632;2023-03-11T04:07:04;3.57;;;1.50;;
15094;SDS011;7648;52.264;9.632;2023-03-11T04:11:08;2.20;;;1.30;;
15094;SDS011;7648;52.264;9.632;2023-03-11T04:15:10;1.57;;;1.47;;
15094;SDS011;7648;52.264;9.632;2023-03-11T04:19:14;2.20;;;1.40;;
15094;SDS011;7648;52.264;9.632;2023-03-11T04:23:17;1.63;;;1.53;;
15094;SDS011;7648;52.264;9.632;2023-03-11T04:27:19;2.23;;;1.67;;
15094;SDS011;7648;52.264;9.632;2023-03-11T04:31:21;1.60;;;1.33;;
15094;SDS011;7648;52.264;9.632;2023-03-11T04:35:23;1.93;;;1.57;;
15094;SDS011;7648;52.264;9.632;2023-03-11T04:39:27;2.03;;;1.10;;
15094;SDS011;7648;52.264;9.632;2023-03-11T04:43:29;7.10;;;1.27;;
15094;SDS011;7648;52.264;9.632;2023-03-11T04:47:32;2.20;;;0.97;;
15094;SDS011;7648;52.264;9.632;2023-03-11T04:51:37;2.70;;;1.20;;
15094;SDS011;7648;52.264;9.632;2023-03-11T04:55:41;2.43;;;1.20;;
15094;SDS011;7648;52.264;9.632;2023-03-11T04:59:43;5.27;;;1.40;;
15094;SDS011;7648;52.264;9.632;2023-03-11T05:03:47;1.40;;;1.30;;
15094;SDS011;7648;52.264;9.632;2023-03-11T05:07:50;2.63;;;0.93;;
15094;SDS011;7648;52.264;9.632;2023-03-11T05:11:53;1.07;;;0.77;;
15094;SDS011;7648;52.264;9.632;2023-03-11T05:15:56;3.80;;;1.43;;
15094;SDS011;7648;52.264;9.632;2023-03-11T05:19:58;2.67;;;1.20;;
15094;SDS011;7648;52.264;9.632;2023-03-11T05:24:05;2.77;;;1.27;;
15094;SDS011;7648;52.264;9.632;2023-03-11T05:28:09;2.60;;;1.10;;
15094;SDS011;7648;52.264;9.632;2023-03-11T05:32:16;1.73;;;1.13;;
15094;SDS011;7648;52.264;9.632;2023-03-11T05:36:20;1.43;;;1.33;;
15094;SDS011;7648;52.264;9.632;2023-03-11T05:40:22;1.90;;;1.17;;
15094;SDS011;7648;52.264;9.632;2023-03-11T05:44:25;2.77;;;0.73;;
15094;SDS011;7648;52.264;9.632;2023-03-11T05:48:29;3.70;;;1.10;;
15094;SDS011;7648;52.264;9.632;2023-03-11T05:52:31;2.50;;;1.00;;
15094;SDS011;7648;52.264;9.632;2023-03-11T05:56:33;1.67;;;0.90;;
15094;SDS011;7648;52.264;9.632;2023-03-11T06:00:38;2.43;;;1.10;;
15094;SDS011;7648;52.264;9.632;2023-03-11T06:04:40;2.97;;;0.80;;
15094;SDS011;7648;52.264;9.632;2023-03-11T06:08:43;3.67;;;0.70;;
15094;SDS011;7648;52.264;9.632;2023-03-11T06:12:49;1.40;;;1.13;;
15094;SDS011;7648;52.264;9.632;2023-03-11T06:17:05;9.10;;;2.80;;
15094;SDS011;7648;52.264;9.632;2023-03-11T06:21:08;1.87;;;0.80;;
15094;SDS011;7648;52.264;9.632;2023-03-11T06:25:16;1.27;;;0.90;;
15094;SDS011;7648;52.264;9.632;2023-03-11T06:29:20;1.07;;;1.07;;
15094;SDS011;7648;52.264;9.632;2023-03-11T06:33:25;3.47;;;0.97;;
15094;SDS011;7648;52.264;9.632;2023-03-11T06:37:27;1.47;;;1.17;;
15094;SDS011;7648;52.264;9.632;2023-03-11T06:41:31;1.60;;;0.83;;
15094;SDS011;7648;52.264;9.632;2023-03-11T06:45:34;1.10;;;1.00;;
15094;SDS011;7648;52.264;9.632;2023-03-11T06:49:38;1.60;;;0.83;;
15094;SDS011;7648;52.264;9.632;2023-03-11T06:53:42;2.87;;;1.00;;
15094;SDS011;7648;52.264;9.632;2023-03-11T06:57:44;2.80;;;0.97;;
15094;SDS011;7648;52.264;9.632;2023-03-11T07:01:47;2.60;;;0.90;;
15094;SDS011;7648;52.264;9.632;2023-03-11T07:05:51;2.23;;;1.10;;
15094;SDS011;7648;52.264;9.632;2023-03-11T07:09:53;1.37;;;1.00;;
15094;SDS011;7648;52.264;9.632;2023-03-11T07:13:57;1.50;;;1.00;;
15094;SDS011;7648;52.264;9.632;2023-03-11T07:18:03;0.97;;;0.90;;
15094;SDS011;7648;52.264;9.632;2023-03-11T07:22:06;4.30;;;0.70;;
15094;SDS011;7648;52.264;9.632;2023-03-11T07:26:08;1.33;;;0.77;;
15094;SDS011;7648;52.264;9.632;2023-03-11T07:30:11;1.83;;;0.50;;
15094;SDS011;7648;52.264;9.632;2023-03-11T07:34:13;1.80;;;0.97;;
15094;SDS011;7648;52.264;9.632;2023-03-11T07:38:17;1.70;;;0.93;;
15094;SDS011;7648;52.264;9.632;2023-03-11T07:42:19;1.07;;;0.70;;
15094;SDS011;7648;52.264;9.632;2023-03-11T07:46:21;3.47;;;1.13;;
15094;SDS011;7648;52.264;9.632;2023-03-11T07:50:24;1.30;;;1.03;;
15094;SDS011;7648;52.264;9.632;2023-03-11T07:54:27;1.70;;;1.00;;
15094;SDS011;7648;52.264;9.632;2023-03-11T07:58:29;1.77;;;0.90;;
15094;SDS011;7648;52.264;9.632;2023-03-11T08:02:31;1.33;;;0.80;;
15094;SDS011;7648;52.264;9.632;2023-03-11T08:06:34;1.50;;;0.67;;
15094;SDS011;7648;52.264;9.632;2023-03-11T08:10:38;1.30;;;1.00;;
15094;SDS011;7648;52.264;9.632;2023-03-11T08:14:40;2.00;;;0.90;;
15094;SDS011;7648;52.264;9.632;2023-03-11T08:18:44;1.87;;;1.30;;
15094;SDS011;7648;52.264;9.632;2023-03-11T08:22:47;0.80;;;0.80;;
15094;SDS011;7648;52.264;9.632;2023-03-11T08:26:50;2.90;;;1.00;;
15094;SDS011;7648;52.264;9.632;2023-03-11T08:30:52;1.43;;;0.73;;
15094;SDS011;7648;52.264;9.632;2023-03-11T08:34:54;2.50;;;1.03;;
15094;SDS011;7648;52.264;9.632;2023-03-11T08:38:56;1.57;;;1.00;;
15094;SDS011;7648;52.264;9.632;2023-03-11T08:42:59;0.87;;;0.87;;
15094;SDS011;7648;52.264;9.632;2023-03-11T08:47:01;2.73;;;1.07;;
15094;SDS011;7648;52.264;9.632;2023-03-11T08:51:07;0.90;;;0.90;;
15094;SDS011;7648;52.264;9.632;2023-03-11T08:55:11;1.33;;;0.90;;
15094;SDS011;7648;52.264;9.632;2023-03-11T08:59:17;1.70;;;0.80;;
15094;SDS011;7648;52.264;9.632;2023-03-11T09:03:19;1.10;;;0.93;;
15094;SDS011;7648;52.264;9.632;2023-03-11T09:07:21;3.20;;;0.90;;
15094;SDS011;7648;52.264;9.632;2023-03-11T09:11:23;2.97;;;1.00;;
15094;SDS011;7648;52.264;9.632;2023-03-11T09:15:26;1.67;;;1.10;;
15094;SDS011;7648;52.264;9.632;2023-03-11T09:19:28;3.67;;;1.20;;
15094;SDS011;7648;52.264;9.632;2023-03-11T09:23:30;1.40;;;1.30;;
15094;SDS011;7648;52.264;9.632;2023-03-11T09:27:32;2.17;;;0.80;;
15094;SDS011;7648;52.264;9.632;2023-03-11T09:31:35;1.10;;;1.00;;
15094;SDS011;7648;52.264;9.632;2023-03-11T09:35:38;1.00;;;1.00;;
15094;SDS011;7648;52.264;9.632;2023-03-11T09:39:40;1.03;;;0.83;;
15094;SDS011;7648;52.264;9.632;2023-03-11T09:43:45;2.30;;;0.90;;
15094;SDS011;7648;52.264;9.632;2023-03-11T09:48:04;6.23;;;1.20;;
15094;SDS011;7648;52.264;9.632;2023-03-11T09:52:16;0.63;;;0.63;;
15094;SDS011;7648;52.264;9.632;2023-03-11T09:56:23;1.50;;;0.80;;
15094;SDS011;7648;52.264;9.632;2023-03-11T10:00:26;0.63;;;0.63;;
15094;SDS011;7648;52.264;9.632;2023-03-11T10:04:31;1.37;;;0.97;;
15094;SDS011;7648;52.264;9.632;2023-03-11T10:08:39;1.20;;;1.00;;
15094;SDS011;7648;52.264;9.632;2023-03-11T10:12:48;3.03;;;1.13;;
15094;SDS011;7648;52.264;9.632;2023-03-11T10:16:58;4.67;;;1.13;;
15094;SDS011;7648;52.264;9.632;2023-03-11T10:21:10;0.80;;;0.80;;
15094;SDS011;7648;52.264;9.632;2023-03-11T10:25:20;1.47;;;1.37;;
15094;SDS011;7648;52.264;9.632;2023-03-11T10:29:26;0.70;;;0.70;;
15094;SDS011;7648;52.264;9.632;2023-03-11T10:33:31;3.23;;;1.10;;
15094;SDS011;7648;52.264;9.632;2023-03-11T10:37:39;2.33;;;1.30;;
15094;SDS011;7648;52.264;9.632;2023-03-11T10:41:45;1.67;;;1.30;;
15094;SDS011;7648;52.264;9.632;2023-03-11T10:45:53;0.97;;;0.97;;
15094;SDS011;7648;52.264;9.632;2023-03-11T10:49:55;1.07;;;1.00;;
15094;SDS011;7648;52.264;9.632;2023-03-11T10:53:59;2.63;;;1.37;;
15094;SDS011;7648;52.264;9.632;2023-03-11T10:58:03;2.37;;;1.07;;
15094;SDS011;7648;52.264;9.632;2023-03-11T11:02:18;3.83;;;1.13;;
15094;SDS011;7648;52.264;9.632;2023-03-11T11:06:25;2.53;;;0.77;;
15094;SDS011;7648;52.264;9.632;2023-03-11T11:10:31;1.23;;;0.90;;
15094;SDS011;7648;52.264;9.632;2023-03-11T11:14:40;1.83;;;1.33;;
15094;SDS011;7648;52.264;9.632;2023-03-11T11:18:44;0.80;;;0.80;;
15094;SDS011;7648;52.264;9.632;2023-03-11T11:22:50;0.93;;;0.70;;
15094;SDS011;7648;52.264;9.632;2023-03-11T11:27:05;3.70;;;0.90;;
15094;SDS011;7648;52.264;9.632;2023-03-11T11:31:19;1.07;;;1.07;;
15094;SDS011;7648;52.264;9.632;2023-03-11T11:35:23;0.60;;;0.60;;
15094;SDS011;7648;52.264;9.632;2023-03-11T11:39:26;4.33;;;1.20;;
15094;SDS011;7648;52.264;9.632;2023-03-11T11:43:40;2.40;;;0.90;;
15094;SDS011;7648;52.264;9.632;2023-03-11T11:47:49;1.37;;;1.10;;
15094;SDS011;7648;52.264;9.632;2023-03-11T11:51:55;2.27;;;1.10;;
15094;SDS011;7648;52.264;9.632;2023-03-11T11:56:02;1.47;;;0.70;;
15094;SDS011;7648;52.264;9.632;2023-03-11T12:00:12;1.10;;;1.00;;
15094;SDS011;7648;52.264;9.632;2023-03-11T12:04:27;1.40;;;0.60;;
15094;SDS011;7648;52.264;9.632;2023-03-11T12:08:46;1.90;;;0.83;;
15094;SDS011;7648;52.264;9.632;2023-03-11T12:13:18;0.70;;;0.70;;
15094;SDS011;7648;52.264;9.632;2023-03-11T12:17:33;1.90;;;0.77;;
15094;SDS011;7648;52.264;9.632;2023-03-11T12:21:43;2.30;;;1.00;;
15094;SDS011;7648;52.264;9.632;2023-03-11T12:26:03;1.43;;;0.80;;
15094;SDS011;7648;52.264;9.632;2023-03-11T12:30:15;1.27;;;0.90;;
15094;SDS011;7648;52.264;9.632;2023-03-11T12:34:21;1.13;;;0.80;;
15094;SDS011;7648;52.264;9.632;2023-03-11T12:38:27;1.23;;;0.80;;
15094;SDS011;7648;52.264;9.632;2023-03-11T12:42:37;1.77;;;0.60;;
15094;SDS011;7648;52.264;9.632;2023-03-11T12:51:40;0.70;;;0.67;;
15094;SDS011;7648;52.264;9.632;2023-03-11T12:56:00;3.83;;;1.00;;
15094;SDS011;7648;52.264;9.632;2023-03-11T13:00:17;0.70;;;0.70;;
15094;SDS011;7648;52.264;9.632;2023-03-11T13:04:31;2.30;;;0.37;;
15094;SDS011;7648;52.264;9.632;2023-03-11T13:08:44;0.50;;;0.50;;
15094;SDS011;7648;52.264;9.632;2023-03-11T13:12:49;0.47;;;0.47;;
15094;SDS011;7648;52.264;9.632;2023-03-11T13:16:51;1.20;;;0.63;;
15094;SDS011;7648;52.264;9.632;2023-03-11T13:20:55;0.50;;;0.50;;
15094;SDS011;7648;52.264;9.632;2023-03-11T13:24:59;0.80;;;0.70;;
15094;SDS011;7648;52.264;9.632;2023-03-11T13:29:41;0.47;;;0.40;;
15094;SDS011;7648;52.264;9.632;2023-03-11T13:33:51;0.57;;;0.43;;
15094;SDS011;7648;52.264;9.632;2023-03-11T13:38:03;0.73;;;0.70;;
15094;SDS011;7648;52.264;9.632;2023-03-11T13:42:19;1.60;;;0.70;;
15094;SDS011;7648;52.264;9.632;2023-03-11T13:46:27;3.10;;;0.57;;
15094;SDS011;7648;52.264;9.632;2023-03-11T13:50:34;0.63;;;0.63;;
15094;SDS011;7648;52.264;9.632;2023-03-11T13:54:41;1.00;;;0.60;;
15094;SDS011;7648;52.264;9.632;2023-03-11T13:58:49;2.07;;;0.67;;
15094;SDS011;7648;52.264;9.632;2023-03-11T14:02:51;3.93;;;0.67;;
15094;SDS011;7648;52.264;9.632;2023-03-11T14:06:55;3.40;;;0.70;;
15094;SDS011;7648;52.264;9.632;2023-03-11T14:10:58;1.30;;;0.70;;
15094;SDS011;7648;52.264;9.632;2023-03-11T14:15:03;0.60;;;0.60;;
15094;SDS011;7648;52.264;9.632;2023-03-11T14:19:12;4.33;;;0.80;;
15094;SDS011;7648;52.264;9.632;2023-03-11T14:23:16;3.70;;;1.00;;
15094;SDS011;7648;52.264;9.632;2023-03-11T14:27:19;8.40;;;0.70;;
15094;SDS011;7648;52.264;9.632;2023-03-11T14:31:24;2.23;;;0.67;;
15094;SDS011;7648;52.264;9.632;2023-03-11T14:35:31;0.93;;;0.60;;
15094;SDS011;7648;52.264;9.632;2023-03-11T14:39:34;2.93;;;0.50;;
15094;SDS011;7648;52.264;9.632;2023-03-11T14:43:38;1.03;;;0.93;;
15094;SDS011;7648;52.264;9.632;2023-03-11T14:47:46;1.17;;;1.00;;
15094;SDS011;7648;52.264;9.632;2023-03-11T14:51:53;1.40;;;0.60;;
15094;SDS011;7648;52.264;9.632;2023-03-11T14:55:58;2.63;;;0.63;;
15094;SDS011;7648;52.264;9.632;2023-03-11T15:00:02;1.33;;;0.60;;
15094;SDS011;7648;52.264;9.632;2023-03-11T15:04:13;1.43;;;0.63;;
15094;SDS011;7648;52.264;9.632;2023-03-11T15:08:24;0.30;;;0.30;;
15094;SDS011;7648;52.264;9.632;2023-03-11T15:12:29;1.93;;;0.50;;
15094;SDS011;7648;52.264;9.632;2023-03-11T15:16:33;1.17;;;0.40;;
15094;SDS011;7648;52.264;9.632;2023-03-11T15:20:37;3.50;;;1.07;;
15094;SDS011;7648;52.264;9.632;2023-03-11T15:24:39;0.30;;;0.30;;
15094;SDS011;7648;52.264;9.632;2023-03-11T15:28:41;2.40;;;0.70;;
15094;SDS011;7648;52.264;9.632;2023-03-11T15:32:43;0.90;;;0.90;;
15094;SDS011;7648;52.264;9.632;2023-03-11T15:36:54;2.20;;;0.70;;
15094;SDS011;7648;52.264;9.632;2023-03-11T15:40:58;0.83;;;0.60;;
15094;SDS011;7648;52.264;9.632;2023-03-11T15:45:07;1.20;;;0.57;;
15094;SDS011;7648;52.264;9.632;2023-03-11T15:49:16;0.60;;;0.60;;
15094;SDS011;7648;52.264;9.632;2023-03-11T15:53:20;1.73;;;0.50;;
15094;SDS011;7648;52.264;9.632;2023-03-11T15:57:23;0.70;;;0.70;;
15094;SDS011;7648;52.264;9.632;2023-03-11T16:01:28;1.40;;;0.40;;
15094;SDS011;7648;52.264;9.632;2023-03-11T16:05:30;2.03;;;0.80;;
15094;SDS011;7648;52.264;9.632;2023-03-11T16:09:33;2.80;;;0.60;;
15094;SDS011;7648;52.264;9.632;2023-03-11T16:13:35;1.73;;;0.77;;
15094;SDS011;7648;52.264;9.632;2023-03-11T16:17:37;2.77;;;0.70;;
15094;SDS011;7648;52.264;9.632;2023-03-11T16:21:40;0.60;;;0.60;;
15094;SDS011;7648;52.264;9.632;2023-03-11T16:25:47;0.77;;;0.70;;
15094;SDS011;7648;52.264;9.632;2023-03-11T16:29:50;0.50;;;0.50;;
15094;SDS011;7648;52.264;9.632;2023-03-11T16:33:52;0.77;;;0.77;;
15094;SDS011;7648;52.264;9.632;2023-03-11T16:37:54;0.63;;;0.63;;
15094;SDS011;7648;52.264;9.632;2023-03-11T16:41:57;1.87;;;0.77;;
15094;SDS011;7648;52.264;9.632;2023-03-11T16:45:59;0.50;;;0.50;;
15094;SDS011;7648;52.264;9.632;2023-03-11T16:50:00;1.23;;;0.60;;
15094;SDS011;7648;52.264;9.632;2023-03-11T16:54:03;0.50;;;0.50;;
15094;SDS011;7648;52.264;9.632;2023-03-11T16:58:06;0.87;;;0.87;;
15094;SDS011;7648;52.264;9.632;2023-03-11T17:02:08;1.70;;;0.60;;
15094;SDS011;7648;52.264;9.632;2023-03-11T17:06:11;1.90;;;0.60;;
15094;SDS011;7648;52.264;9.632;2023-03-11T17:10:13;0.40;;;0.40;;
15094;SDS011;7648;52.264;9.632;2023-03-11T17:14:16;0.50;;;0.50;;
15094;SDS011;7648;52.264;9.632;2023-03-11T17:18:18;0.73;;;0.70;;
15094;SDS011;7648;52.264;9.632;2023-03-11T17:22:20;0.50;;;0.50;;
15094;SDS011;7648;52.264;9.632;2023-03-11T17:26:22;1.13;;;0.50;;
15094;SDS011;7648;52.264;9.632;2023-03-11T17:30:26;0.70;;;0.70;;
15094;SDS011;7648;52.264;9.632;2023-03-11T17:34:29;2.07;;;0.90;;
15094;SDS011;7648;52.264;9.632;2023-03-11T17:38:30;0.60;;;0.60;;
15094;SDS011;7648;52.264;9.632;2023-03-11T17:42:32;0.83;;;0.80;;
15094;SDS011;7648;52.264;9.632;2023-03-11T17:46:36;1.33;;;0.93;;
15094;SDS011;7648;52.264;9.632;2023-03-11T17:50:39;1.10;;;1.00;;
15094;SDS011;7648;52.264;9.632;2023-03-11T17:54:40;1.77;;;1.37;;
15094;SDS011;7648;52.264;9.632;2023-03-11T17:58:43;2.17;;;1.23;;
15094;SDS011;7648;52.264;9.632;2023-03-11T18:02:46;3.03;;;0.80;;
15094;SDS011;7648;52.264;9.632;2023-03-11T18:06:51;1.77;;;1.13;;
15094;SDS011;7648;52.264;9.632;2023-03-11T18:10:54;1.60;;;1.00;;
15094;SDS011;7648;52.264;9.632;2023-03-11T18:15:00;1.33;;;1.20;;
15094;SDS011;7648;52.264;9.632;2023-03-11T18:19:06;2.63;;;1.20;;
15094;SDS011;7648;52.264;9.632;2023-03-11T18:23:08;1.57;;;1.20;;
15094;SDS011;7648;52.264;9.632;2023-03-11T18:27:10;1.57;;;1.13;;
15094;SDS011;7648;52.264;9.632;2023-03-11T18:31:12;4.33;;;1.70;;
15094;SDS011;7648;52.264;9.632;2023-03-11T18:35:17;1.23;;;1.10;;
15094;SDS011;7648;52.264;9.632;2023-03-11T18:39:19;2.97;;;1.10;;
15094;SDS011;7648;52.264;9.632;2023-03-11T18:43:20;1.80;;;1.03;;
15094;SDS011;7648;52.264;9.632;2023-03-11T18:47:22;1.67;;;1.10;;
15094;SDS011;7648;52.264;9.632;2023-03-11T18:51:26;2.23;;;1.03;;
15094;SDS011;7648;52.264;9.632;2023-03-11T18:55:30;1.00;;;1.00;;
15094;SDS011;7648;52.264;9.632;2023-03-11T18:59:34;1.47;;;0.57;;
15094;SDS011;7648;52.264;9.632;2023-03-11T19:03:36;0.80;;;0.80;;
15094;SDS011;7648;52.264;9.632;2023-03-11T19:07:39;2.70;;;1.30;;
15094;SDS011;7648;52.264;9.632;2023-03-11T19:11:41;1.10;;;1.00;;
15094;SDS011;7648;52.264;9.632;2023-03-11T19:15:43;1.10;;;1.03;;
15094;SDS011;7648;52.264;9.632;2023-03-11T19:19:46;1.30;;;1.20;;
15094;SDS011;7648;52.264;9.632;2023-03-11T19:23:49;0.80;;;0.80;;
15094;SDS011;7648;52.264;9.632;2023-03-11T19:27:54;0.97;;;0.87;;
15094;SDS011;7648;52.264;9.632;2023-03-11T19:31:57;2.00;;;0.70;;
15094;SDS011;7648;52.264;9.632;2023-03-11T19:35:59;1.00;;;0.90;;
15094;SDS011;7648;52.264;9.632;2023-03-11T19:40:04;1.33;;;1.00;;
15094;SDS011;7648;52.264;9.632;2023-03-11T19:44:07;2.93;;;1.00;;
15094;SDS011;7648;52.264;9.632;2023-03-11T19:48:09;0.90;;;0.90;;
15094;SDS011;7648;52.264;9.632;2023-03-11T19:52:11;1.27;;;0.80;;
15094;SDS011;7648;52.264;9.632;2023-03-11T19:56:14;1.80;;;0.97;;
15094;SDS011;7648;52.264;9.632;2023-03-11T20:00:17;3.97;;;0.97;;
15094;SDS011;7648;52.264;9.632;2023-03-11T20:04:19;3.00;;;0.80;;
15094;SDS011;7648;52.264;9.632;2023-03-11T20:08:22;0.90;;;0.87;;
15094;SDS011;7648;52.264;9.632;2023-03-11T20:12:26;0.90;;;0.90;;
15094;SDS011;7648;52.264;9.632;2023-03-11T20:16:28;0.70;;;0.70;;
15094;SDS011;7648;52.264;9.632;2023-03-11T20:20:30;1.57;;;1.00;;
15094;SDS011;7648;52.264;9.632;2023-03-11T20:24:32;2.90;;;0.90;;
15094;SDS011;7648;52.264;9.632;2023-03-11T20:28:36;0.70;;;0.70;;
15094;SDS011;7648;52.264;9.632;2023-03-11T20:32:38;0.53;;;0.43;;
15094;SDS011;7648;52.264;9.632;2023-03-11T20:36:40;3.30;;;1.20;;
15094;SDS011;7648;52.264;9.632;2023-03-11T20:40:42;1.63;;;0.87;;
15094;SDS011;7648;52.264;9.632;2023-03-11T20:44:49;3.97;;;1.43;;
15094;SDS011;7648;52.264;9.632;2023-03-11T20:48:51;2.73;;;0.70;;
15094;SDS011;7648;52.264;9.632;2023-03-11T20:52:53;0.70;;;0.70;;
15094;SDS011;7648;52.264;9.632;2023-03-11T20:56:55;1.60;;;1.03;;
15094;SDS011;7648;52.264;9.632;2023-03-11T21:00:58;1.27;;;0.80;;
15094;SDS011;7648;52.264;9.632;2023-03-11T21:05:00;0.83;;;0.70;;
15094;SDS011;7648;52.264;9.632;2023-03-11T21:09:03;1.07;;;0.87;;
15094;SDS011;7648;52.264;9.632;2023-03-11T21:13:07;0.60;;;0.60;;
15094;SDS011;7648;52.264;9.632;2023-03-11T21:17:10;2.43;;;0.97;;
15094;SDS011;7648;52.264;9.632;2023-03-11T21:21:13;1.97;;;0.80;;
15094;SDS011;7648;52.264;9.632;2023-03-11T21:25:16;2.63;;;0.80;;
15094;SDS011;7648;52.264;9.632;2023-03-11T21:29:18;0.87;;;0.87;;
15094;SDS011;7648;52.264;9.632;2023-03-11T21:33:21;0.80;;;0.67;;
15094;SDS011;7648;52.264;9.632;2023-03-11T21:37:23;1.70;;;0.90;;
15094;SDS011;7648;52.264;9.632;2023-03-11T21:41:26;0.83;;;0.83;;
15094;SDS011;7648;52.264;9.632;2023-03-11T21:45:28;0.90;;;0.90;;
15094;SDS011;7648;52.264;9.632;2023-03-11T21:49:31;0.53;;;0.53;;
15094;SDS011;7648;52.264;9.632;2023-03-11T21:53:33;0.80;;;0.80;;
15094;SDS011;7648;52.264;9.632;2023-03-11T21:57:35;0.40;;;0.40;;
15094;SDS011;7648;52.264;9.632;2023-03-11T22:01:37;0.80;;;0.80;;
15094;SDS011;7648;52.264;9.632;2023-03-11T22:05:40;0.77;;;0.77;;
15094;SDS011;7648;52.264;9.632;2023-03-11T22:09:43;1.73;;;0.70;;
15094;SDS011;7648;52.264;9.632;2023-03-11T22:13:45;0.97;;;0.97;;
15094;SDS011;7648;52.264;9.632;2023-03-11T22:17:47;2.03;;;0.90;;
15094;SDS011;7648;52.264;9.632;2023-03-11T22:21:51;0.77;;;0.77;;
15094;SDS011;7648;52.264;9.632;2023-03-11T22:25:53;1.73;;;1.00;;
15094;SDS011;7648;52.264;9.632;2023-03-11T22:29:55;0.80;;;0.80;;
15094;SDS011;7648;52.264;9.632;2023-03-11T22:33:57;0.80;;;0.80;;
15094;SDS011;7648;52.264;9.632;2023-03-11T22:38:00;1.03;;;1.03;;
15094;SDS011;7648;52.264;9.632;2023-03-11T22:42:02;0.70;;;0.70;;
15094;SDS011;7648;52.264;9.632;2023-03-11T22:46:04;2.30;;;1.03;;
15094;SDS011;7648;52.264;9.632;2023-03-11T22:50:07;0.80;;;0.80;;
15094;SDS011;7648;52.264;9.632;2023-03-11T22:54:10;0.73;;;0.73;;
15094;SDS011;7648;52.264;9.632;2023-03-11T22:58:13;4.73;;;0.97;;
15094;SDS011;7648;52.264;9.632;2023-03-11T23:02:15;0.83;;;0.83;;
15094;SDS011;7648;52.264;9.632;2023-03-11T23:06:17;0.93;;;0.73;;
15094;SDS011;7648;52.264;9.632;2023-03-11T23:10:21;2.03;;;0.77;;
15094;SDS011;7648;52.264;9.632;2023-03-11T23:14:23;1.00;;;1.00;;
15094;SDS011;7648;52.264;9.632;2023-03-11T23:18:25;3.47;;;0.90;;
15094;SDS011;7648;52.264;9.632;2023-03-11T23:22:27;2.93;;;0.90;;
15094;SDS011;7648;52.264;9.632;2023-03-11T23:26:31;1.10;;;1.00;;
15094;SDS011;7648;52.264;9.632;2023-03-11T23:30:34;1.10;;;1.10;;
15094;SDS011;7648;52.264;9.632;2023-03-11T23:34:36;0.97;;;0.97;;
15094;SDS011;7648;52.264;9.632;2023-03-11T23:38:38;1.90;;;0.90;;
15094;SDS011;7648;52.264;9.632;2023-03-11T23:42:41;1.90;;;1.13;;
15094;SDS011;7648;52.264;9.632;2023-03-11T23:46:43;0.93;;;0.83;;
15094;SDS011;7648;52.264;9.632;2023-03-11T23:50:45;1.23;;;1.00;;
15094;SDS011;7648;52.264;9.632;2023-03-11T23:54:48;3.47;;;1.27;;
15094;SDS011;7648;52.264;9.632;2023-03-11T23:58:51;2.37;;;1.10;;
